Dinnington, United Kingdom
Current Conditions -  °F | °C
As of 7:50 PM on Sunday 23 Nov 2014 (Local Time) from EGCN Reporting Station
Clear Clear  
Wind Chill: 37°   Ceiling: Unl
Heat Index: 41°   Visibility: 6mi
Dew Point: 37°   Wind: 6mph
Humidity: 87%   Direction: 280°W
Pressure: 30.12"   Gusts: NA
Location:  53.37°N, 1.2°W
Report Text: EGCN 231950Z 28005KT 240V300 CAVOK 05/03 Q1020
Loading
Personal Weather Stations






























Interactive Weather Map New forecast layout! Learn more

10-Day Weather Forecast

Advertisements
Track Severe Weather on mobile